Time;durP1;ratioP1;P1;durP2;ratioP2;P2;SDS_P1;SDS_P2;PMS_P1;PMS_P2;Temp;Humidity;BMP_temperature;BMP_pressure;BME280_temperature;BME280_humidity;BME280_pressure;Samples;Min_cycle;Max_cycle;Signal;HPM_P1;HPM_P2
2023/07/31 00:02:23;;;;;;;12.80;5.55;;;;;;;;;;5051952;28;20250;-83
2023/07/31 00:04:50;;;;;;;12.52;4.80;;;;;;;;;;5054340;28;20361;-81
2023/07/31 00:07:18;;;;;;;14.77;5.55;;;;;;;;;;5053409;28;20237;-80
2023/07/31 00:09:45;;;;;;;11.93;4.85;;;;;;;;;;5053005;28;20731;-83
2023/07/31 00:12:12;;;;;;;16.70;5.50;;;;;;;;;;5052771;28;20286;-83
2023/07/31 00:14:41;;;;;;;15.00;5.47;;;;;;;;;;5051986;28;20322;-83
2023/07/31 00:17:08;;;;;;;12.48;5.35;;;;;;;;;;5052960;28;20286;-83
2023/07/31 00:19:36;;;;;;;16.90;5.47;;;;;;;;;;5054541;28;20647;-84
2023/07/31 00:22:03;;;;;;;16.80;5.50;;;;;;;;;;5052422;28;20246;-81
2023/07/31 00:24:30;;;;;;;10.80;5.35;;;;;;;;;;5052422;28;20298;-80
2023/07/31 00:26:57;;;;;;;11.55;5.28;;;;;;;;;;5052340;28;20267;-83
2023/07/31 00:29:24;;;;;;;19.35;5.90;;;;;;;;;;5052989;28;20200;-83
2023/07/31 00:31:53;;;;;;;13.18;5.53;;;;;;;;;;5052461;28;20196;-83
2023/07/31 00:34:20;;;;;;;13.75;5.40;;;;;;;;;;5052579;28;20230;-83
2023/07/31 00:36:47;;;;;;;16.17;5.90;;;;;;;;;;5052612;28;20291;-83
2023/07/31 00:39:14;;;;;;;12.93;6.32;;;;;;;;;;5053230;28;20200;-81
2023/07/31 00:41:42;;;;;;;14.45;5.15;;;;;;;;;;5054115;28;20255;-80
2023/07/31 00:44:09;;;;;;;13.45;5.75;;;;;;;;;;5057327;28;20290;-81
2023/07/31 00:46:36;;;;;;;16.15;5.38;;;;;;;;;;5052078;28;20261;-80
2023/07/31 00:49:05;;;;;;;19.60;5.82;;;;;;;;;;5052004;28;20303;-80
2023/07/31 00:51:32;;;;;;;21.42;5.80;;;;;;;;;;5052786;28;20265;-80
2023/07/31 00:53:59;;;;;;;19.55;5.57;;;;;;;;;;5051579;28;20262;-80
2023/07/31 00:56:27;;;;;;;14.07;6.05;;;;;;;;;;5051602;28;20235;-80
2023/07/31 00:58:55;;;;;;;13.05;5.90;;;;;;;;;;5052108;28;20230;-80
2023/07/31 01:01:22;;;;;;;16.98;5.70;;;;;;;;;;5053791;28;20287;-81
2023/07/31 01:03:52;;;;;;;16.80;5.90;;;;;;;;;;5052062;28;20282;-80
2023/07/31 01:06:24;;;;;;;14.70;5.57;;;;;;;;;;5051913;28;20207;-82
2023/07/31 01:08:56;;;;;;;15.35;6.10;;;;;;;;;;5052398;28;20192;-80
2023/07/31 01:11:26;;;;;;;16.25;6.10;;;;;;;;;;5052211;28;20283;-80
2023/07/31 01:13:56;;;;;;;17.70;6.03;;;;;;;;;;5052300;28;20318;-83
2023/07/31 01:16:23;;;;;;;14.10;6.03;;;;;;;;;;5055577;28;20239;-82
2023/07/31 01:18:50;;;;;;;15.63;6.18;;;;;;;;;;5051746;28;20224;-83
2023/07/31 01:21:31;;;;;;;15.30;5.63;;;;;;;;;;5051849;28;20826;-83
2023/07/31 01:24:10;;;;;;;15.70;6.00;;;;;;;;;;5051343;28;20246;-82
2023/07/31 01:26:40;;;;;;;18.95;6.13;;;;;;;;;;5052813;28;20679;-82
2023/07/31 01:29:10;;;;;;;16.92;6.20;;;;;;;;;;5052241;28;20636;-82
2023/07/31 01:31:38;;;;;;;15.70;6.50;;;;;;;;;;5052358;28;20570;-82
2023/07/31 01:34:05;;;;;;;17.60;6.50;;;;;;;;;;5051210;28;20781;-82
2023/07/31 01:36:33;;;;;;;17.20;6.63;;;;;;;;;;5052110;28;20291;-82
2023/07/31 01:39:00;;;;;;;16.92;5.65;;;;;;;;;;5051198;28;20750;-82
2023/07/31 01:41:27;;;;;;;15.65;6.53;;;;;;;;;;5051037;28;20202;-81
2023/07/31 01:43:56;;;;;;;13.68;5.38;;;;;;;;;;5051650;28;20243;-82
2023/07/31 01:46:23;;;;;;;18.27;5.97;;;;;;;;;;5050926;28;20295;-82
2023/07/31 01:48:50;;;;;;;16.33;6.28;;;;;;;;;;5050895;28;20278;-82
2023/07/31 01:51:17;;;;;;;12.88;5.22;;;;;;;;;;5051375;28;20200;-82
2023/07/31 01:53:45;;;;;;;15.27;5.80;;;;;;;;;;5051100;28;20228;-82
2023/07/31 01:56:12;;;;;;;16.80;5.90;;;;;;;;;;5053988;28;20246;-81
2023/07/31 01:58:39;;;;;;;12.73;5.47;;;;;;;;;;5055148;28;20219;-82
2023/07/31 02:01:07;;;;;;;16.52;5.93;;;;;;;;;;5055603;28;20234;-83
2023/07/31 02:03:35;;;;;;;17.48;6.22;;;;;;;;;;5054619;28;20664;-83
2023/07/31 02:06:02;;;;;;;12.63;5.63;;;;;;;;;;5054822;28;20654;-82
2023/07/31 02:08:29;;;;;;;14.90;5.70;;;;;;;;;;5055112;28;20203;-83
2023/07/31 02:10:56;;;;;;;17.63;6.22;;;;;;;;;;5054151;28;20294;-83
2023/07/31 02:13:23;;;;;;;17.10;6.43;;;;;;;;;;5055176;28;20647;-82
2023/07/31 02:15:51;;;;;;;16.52;5.82;;;;;;;;;;5055115;28;20196;-82
2023/07/31 02:18:20;;;;;;;16.63;6.25;;;;;;;;;;5055094;28;20850;-82
2023/07/31 02:20:53;;;;;;;15.05;5.78;;;;;;;;;;5055011;28;20227;-82
2023/07/31 02:23:20;;;;;;;14.70;5.63;;;;;;;;;;5054912;28;20570;-82
2023/07/31 02:25:47;;;;;;;20.98;6.22;;;;;;;;;;5054937;28;20224;-82
2023/07/31 02:28:15;;;;;;;16.02;6.20;;;;;;;;;;5054491;28;20259;-82
2023/07/31 02:30:45;;;;;;;17.25;6.43;;;;;;;;;;5054658;28;20196;-82
2023/07/31 02:33:13;;;;;;;15.38;5.88;;;;;;;;;;5054970;28;20196;-81
2023/07/31 02:35:41;;;;;;;16.75;5.55;;;;;;;;;;5057949;28;20265;-89
2023/07/31 02:38:09;;;;;;;12.13;5.53;;;;;;;;;;5057045;28;20195;-88
2023/07/31 02:40:36;;;;;;;17.10;6.20;;;;;;;;;;5056746;28;20227;-89
2023/07/31 02:43:03;;;;;;;17.77;6.55;;;;;;;;;;5056450;28;20195;-88
2023/07/31 02:45:31;;;;;;;18.42;6.50;;;;;;;;;;5056604;28;20295;-88
2023/07/31 02:47:58;;;;;;;15.20;6.22;;;;;;;;;;5056055;28;20211;-89
2023/07/31 02:50:25;;;;;;;15.15;6.10;;;;;;;;;;5056310;28;20208;-89
2023/07/31 02:52:54;;;;;;;14.85;6.03;;;;;;;;;;5056221;28;20282;-89
2023/07/31 02:55:21;;;;;;;17.33;6.10;;;;;;;;;;5056086;28;20219;-88
2023/07/31 02:57:48;;;;;;;14.77;5.80;;;;;;;;;;5055973;28;20233;-88
2023/07/31 03:00:16;;;;;;;15.98;5.78;;;;;;;;;;5055512;28;20283;-88
2023/07/31 03:02:43;;;;;;;12.45;6.28;;;;;;;;;;5057193;28;20212;-88
2023/07/31 03:05:10;;;;;;;14.15;6.35;;;;;;;;;;5056058;28;20231;-88
2023/07/31 03:07:38;;;;;;;14.68;5.80;;;;;;;;;;5055087;28;20292;-87
2023/07/31 03:10:07;;;;;;;14.88;6.43;;;;;;;;;;5055969;28;20231;-88
2023/07/31 03:12:34;;;;;;;14.23;5.75;;;;;;;;;;5055803;28;20253;-88
2023/07/31 03:15:02;;;;;;;16.75;6.15;;;;;;;;;;5055863;28;20306;-88
2023/07/31 03:17:29;;;;;;;14.63;6.00;;;;;;;;;;5055877;28;20199;-88
2023/07/31 03:19:57;;;;;;;16.98;6.57;;;;;;;;;;5055605;28;20212;-88
2023/07/31 03:22:24;;;;;;;15.40;5.80;;;;;;;;;;5055535;28;20219;-89
2023/07/31 03:24:51;;;;;;;18.13;6.03;;;;;;;;;;5055671;28;20215;-87
2023/07/31 03:27:20;;;;;;;12.93;5.82;;;;;;;;;;5055789;28;20228;-87
2023/07/31 03:29:49;;;;;;;15.50;6.18;;;;;;;;;;5055285;28;20271;-88
2023/07/31 03:32:17;;;;;;;14.55;5.97;;;;;;;;;;5055158;28;20200;-88
2023/07/31 03:34:44;;;;;;;18.90;6.28;;;;;;;;;;5054981;28;20314;-88
2023/07/31 03:37:11;;;;;;;14.90;6.03;;;;;;;;;;5056284;28;20234;-87
2023/07/31 03:39:38;;;;;;;15.93;6.15;;;;;;;;;;5056350;28;20668;-88
2023/07/31 03:42:06;;;;;;;13.65;5.72;;;;;;;;;;5055253;28;20188;-87
2023/07/31 03:44:34;;;;;;;12.18;6.20;;;;;;;;;;5055142;28;20204;-88
2023/07/31 03:47:02;;;;;;;14.35;6.25;;;;;;;;;;5056320;28;20227;-88
2023/07/31 03:49:29;;;;;;;16.25;5.50;;;;;;;;;;5055958;28;20187;-88
2023/07/31 03:51:56;;;;;;;16.65;5.68;;;;;;;;;;5055075;28;20227;-88
2023/07/31 03:54:24;;;;;;;15.85;5.80;;;;;;;;;;5055226;28;20318;-87
2023/07/31 03:56:51;;;;;;;16.02;6.40;;;;;;;;;;5055209;28;20200;-88
2023/07/31 03:59:18;;;;;;;15.90;5.93;;;;;;;;;;5054904;28;20202;-87
2023/07/31 04:01:47;;;;;;;18.10;6.30;;;;;;;;;;5055115;28;20227;-88
2023/07/31 04:04:14;;;;;;;13.68;5.78;;;;;;;;;;5054572;28;20220;-87
2023/07/31 04:06:41;;;;;;;15.68;6.45;;;;;;;;;;5055037;28;20240;-89
2023/07/31 04:09:09;;;;;;;19.63;6.50;;;;;;;;;;5055339;28;20583;-88
2023/07/31 04:11:36;;;;;;;18.65;6.15;;;;;;;;;;5054907;28;20203;-87
2023/07/31 04:14:03;;;;;;;19.10;6.20;;;;;;;;;;5055014;28;20266;-88
2023/07/31 04:16:30;;;;;;;14.95;6.00;;;;;;;;;;5054776;28;20200;-88
2023/07/31 04:18:59;;;;;;;15.88;6.07;;;;;;;;;;5054889;28;20203;-88
2023/07/31 04:21:26;;;;;;;16.10;5.95;;;;;;;;;;5055481;28;20184;-87
2023/07/31 04:23:55;;;;;;;16.95;6.05;;;;;;;;;;5055479;28;20234;-88
2023/07/31 04:26:23;;;;;;;15.27;6.53;;;;;;;;;;5054483;28;20204;-88
2023/07/31 04:28:50;;;;;;;14.48;6.38;;;;;;;;;;5054639;28;20271;-87
2023/07/31 04:31:17;;;;;;;14.98;6.07;;;;;;;;;;5054772;28;20641;-87
2023/07/31 04:33:44;;;;;;;18.50;6.50;;;;;;;;;;5053960;28;20299;-88
2023/07/31 04:36:13;;;;;;;17.60;5.78;;;;;;;;;;5054355;28;20270;-88
2023/07/31 04:38:41;;;;;;;15.25;6.40;;;;;;;;;;5054106;28;20297;-87
2023/07/31 04:41:08;;;;;;;15.68;5.93;;;;;;;;;;5054613;28;20672;-86
2023/07/31 04:43:38;;;;;;;20.95;5.93;;;;;;;;;;5054378;28;20231;-86
2023/07/31 04:46:06;;;;;;;16.23;6.50;;;;;;;;;;5054227;28;20575;-88
2023/07/31 04:48:33;;;;;;;13.90;6.10;;;;;;;;;;5054106;28;20282;-88
2023/07/31 04:51:00;;;;;;;13.18;5.60;;;;;;;;;;5054036;28;20278;-88
2023/07/31 04:53:29;;;;;;;11.00;5.55;;;;;;;;;;5053957;28;20210;-88
2023/07/31 04:55:56;;;;;;;17.60;6.15;;;;;;;;;;5053671;28;20325;-87
2023/07/31 04:58:24;;;;;;;15.38;5.90;;;;;;;;;;5053335;28;20671;-88
2023/07/31 05:00:51;;;;;;;13.60;5.60;;;;;;;;;;5054230;28;20218;-88
2023/07/31 05:03:18;;;;;;;14.02;5.75;;;;;;;;;;5054481;28;20216;-88
2023/07/31 05:05:46;;;;;;;17.20;6.30;;;;;;;;;;5053691;28;20295;-88
2023/07/31 05:08:13;;;;;;;15.35;5.75;;;;;;;;;;5053652;28;20196;-88
2023/07/31 05:10:42;;;;;;;17.55;6.40;;;;;;;;;;5053422;28;20196;-88
2023/07/31 05:13:09;;;;;;;15.55;6.25;;;;;;;;;;5053914;28;20216;-87
2023/07/31 05:15:36;;;;;;;18.73;5.88;;;;;;;;;;5054021;28;20267;-87
2023/07/31 05:18:04;;;;;;;14.30;5.97;;;;;;;;;;5053566;28;20222;-88
2023/07/31 05:20:31;;;;;;;16.77;6.05;;;;;;;;;;5053343;28;20299;-88
2023/07/31 05:22:58;;;;;;;15.05;5.82;;;;;;;;;;5053529;28;20397;-88
2023/07/31 05:25:26;;;;;;;14.35;5.72;;;;;;;;;;5053767;28;20286;-88
2023/07/31 05:27:54;;;;;;;16.85;5.90;;;;;;;;;;5053353;28;20649;-88
2023/07/31 05:30:21;;;;;;;14.38;5.13;;;;;;;;;;5053271;28;20596;-88
2023/07/31 05:32:49;;;;;;;11.25;4.95;;;;;;;;;;5053481;28;20623;-88
2023/07/31 05:35:16;;;;;;;10.50;5.82;;;;;;;;;;5053325;28;20274;-88
2023/07/31 05:37:43;;;;;;;12.13;5.88;;;;;;;;;;5053553;28;21382;-88
2023/07/31 05:40:11;;;;;;;13.10;5.90;;;;;;;;;;5053151;28;20298;-88
2023/07/31 05:42:38;;;;;;;12.00;5.43;;;;;;;;;;5053056;28;20731;-88
2023/07/31 05:45:08;;;;;;;12.70;5.47;;;;;;;;;;5053546;28;20210;-88
2023/07/31 05:47:35;;;;;;;11.75;5.50;;;;;;;;;;5053360;28;20283;-88
2023/07/31 05:50:03;;;;;;;14.07;5.43;;;;;;;;;;5053246;28;20280;-88
2023/07/31 05:52:30;;;;;;;12.13;5.53;;;;;;;;;;5053188;28;20234;-87
2023/07/31 05:54:57;;;;;;;15.35;5.43;;;;;;;;;;5052688;28;20254;-88
2023/07/31 05:57:24;;;;;;;14.85;5.82;;;;;;;;;;5053301;28;20282;-88
2023/07/31 05:59:53;;;;;;;13.77;5.15;;;;;;;;;;5053343;28;20210;-88
2023/07/31 06:02:21;;;;;;;11.98;5.15;;;;;;;;;;5053340;28;20644;-87
2023/07/31 06:04:49;;;;;;;13.25;5.72;;;;;;;;;;5053056;28;20192;-88
2023/07/31 06:07:16;;;;;;;13.18;5.47;;;;;;;;;;5052813;28;20660;-88
2023/07/31 06:09:43;;;;;;;13.10;5.13;;;;;;;;;;5052831;28;20198;-88
2023/07/31 06:12:11;;;;;;;13.75;5.60;;;;;;;;;;5052958;28;20220;-87
2023/07/31 06:14:38;;;;;;;14.35;5.72;;;;;;;;;;5053289;28;20195;-88
2023/07/31 06:17:06;;;;;;;10.93;5.05;;;;;;;;;;5053481;28;20203;-88
2023/07/31 06:19:35;;;;;;;12.13;5.30;;;;;;;;;;5052812;28;20227;-89
2023/07/31 06:22:02;;;;;;;17.10;6.07;;;;;;;;;;5053121;28;20275;-89
2023/07/31 06:24:29;;;;;;;15.18;5.53;;;;;;;;;;5053207;28;20290;-88
2023/07/31 06:26:57;;;;;;;12.38;5.38;;;;;;;;;;5053185;28;20308;-88
2023/07/31 06:29:24;;;;;;;13.30;5.22;;;;;;;;;;5053105;28;20279;-87
2023/07/31 06:31:51;;;;;;;13.43;5.30;;;;;;;;;;5053214;28;20283;-88
2023/07/31 06:34:19;;;;;;;12.93;5.47;;;;;;;;;;5052792;28;20203;-88
2023/07/31 06:36:47;;;;;;;10.75;5.22;;;;;;;;;;5053006;28;20230;-88
2023/07/31 06:39:15;;;;;;;15.38;5.05;;;;;;;;;;5052579;28;20714;-89
2023/07/31 06:41:42;;;;;;;14.70;5.47;;;;;;;;;;5055718;28;20237;-89
2023/07/31 06:44:10;;;;;;;13.07;5.55;;;;;;;;;;5056296;28;20230;-88
2023/07/31 06:46:37;;;;;;;11.55;5.07;;;;;;;;;;5056655;28;20287;-88
2023/07/31 06:49:04;;;;;;;13.45;5.47;;;;;;;;;;5056622;28;20241;-88
2023/07/31 06:51:32;;;;;;;11.48;4.95;;;;;;;;;;5056085;28;20290;-87
2023/07/31 06:54:00;;;;;;;11.60;4.53;;;;;;;;;;5055825;28;20200;-89
2023/07/31 06:56:28;;;;;;;12.70;5.00;;;;;;;;;;5056426;28;20285;-88
2023/07/31 06:58:55;;;;;;;12.40;5.40;;;;;;;;;;5056094;28;20687;-88
2023/07/31 07:01:22;;;;;;;11.43;4.78;;;;;;;;;;5056244;28;20249;-88
2023/07/31 07:03:50;;;;;;;12.75;4.88;;;;;;;;;;5056560;28;20200;-88
2023/07/31 07:06:18;;;;;;;12.23;5.18;;;;;;;;;;5056315;28;20572;-89
2023/07/31 07:08:45;;;;;;;13.80;5.35;;;;;;;;;;5054634;28;20196;-88
2023/07/31 07:11:14;;;;;;;13.52;5.22;;;;;;;;;;5055930;28;20278;-88
2023/07/31 07:13:41;;;;;;;17.17;4.70;;;;;;;;;;5055821;28;20661;-88
2023/07/31 07:16:10;;;;;;;13.35;4.93;;;;;;;;;;5055538;28;20314;-87
2023/07/31 07:18:37;;;;;;;11.10;4.40;;;;;;;;;;5056184;28;20202;-87
2023/07/31 07:21:04;;;;;;;12.65;4.65;;;;;;;;;;5055953;28;20192;-88
2023/07/31 07:23:31;;;;;;;10.40;4.30;;;;;;;;;;5055785;28;20265;-87
2023/07/31 07:25:59;;;;;;;14.52;4.72;;;;;;;;;;5055853;28;20223;-87
2023/07/31 07:28:28;;;;;;;12.65;4.60;;;;;;;;;;5055469;28;20251;-88
2023/07/31 07:30:55;;;;;;;11.40;4.38;;;;;;;;;;5055592;28;20210;-88
2023/07/31 07:33:23;;;;;;;9.55;4.13;;;;;;;;;;5055463;28;20199;-88
2023/07/31 07:35:50;;;;;;;16.08;4.70;;;;;;;;;;5055390;28;20318;-88
2023/07/31 07:38:19;;;;;;;12.90;4.28;;;;;;;;;;5055224;28;20231;-88
2023/07/31 07:40:46;;;;;;;11.73;3.65;;;;;;;;;;5055486;28;20664;-88
2023/07/31 07:43:13;;;;;;;6.95;4.05;;;;;;;;;;5055529;28;20206;-88
2023/07/31 07:45:42;;;;;;;9.93;4.63;;;;;;;;;;5054997;28;20199;-88
2023/07/31 07:48:09;;;;;;;7.82;3.58;;;;;;;;;;5055549;28;20230;-88
2023/07/31 07:50:37;;;;;;;10.30;4.15;;;;;;;;;;5055635;28;20275;-88
2023/07/31 07:53:04;;;;;;;9.52;4.28;;;;;;;;;;5054612;28;20742;-88
2023/07/31 07:55:32;;;;;;;10.63;4.10;;;;;;;;;;5054859;28;20282;-89
2023/07/31 07:57:59;;;;;;;11.30;4.40;;;;;;;;;;5055157;28;20290;-87
2023/07/31 08:00:26;;;;;;;9.40;4.15;;;;;;;;;;5055261;28;20211;-87
2023/07/31 08:02:57;;;;;;;10.85;4.10;;;;;;;;;;5055076;28;20193;-88
2023/07/31 08:05:24;;;;;;;12.35;4.03;;;;;;;;;;5055077;28;20626;-88
2023/07/31 08:07:51;;;;;;;9.88;4.10;;;;;;;;;;5054998;28;20216;-89
2023/07/31 08:10:18;;;;;;;9.70;3.72;;;;;;;;;;5054418;28;20286;-88
2023/07/31 08:12:46;;;;;;;7.43;3.95;;;;;;;;;;5054668;28;20281;-89
2023/07/31 08:15:13;;;;;;;8.02;3.80;;;;;;;;;;5054586;28;20238;-89
2023/07/31 08:17:40;;;;;;;11.00;4.55;;;;;;;;;;5054532;28;20295;-88
2023/07/31 08:20:10;;;;;;;7.55;3.65;;;;;;;;;;5054797;28;20573;-88
2023/07/31 08:22:37;;;;;;;11.50;3.65;;;;;;;;;;5054480;28;21015;-88
2023/07/31 08:25:05;;;;;;;7.65;3.55;;;;;;;;;;5054807;28;20234;-88
2023/07/31 08:27:33;;;;;;;8.52;3.60;;;;;;;;;;5054133;28;20232;-87
2023/07/31 08:30:00;;;;;;;9.40;4.03;;;;;;;;;;5054358;28;20672;-88
2023/07/31 08:32:27;;;;;;;8.57;3.58;;;;;;;;;;5054270;28;20708;-88
2023/07/31 08:34:54;;;;;;;7.95;3.50;;;;;;;;;;5053808;28;20690;-88
2023/07/31 08:37:23;;;;;;;8.70;3.67;;;;;;;;;;5054781;28;20389;-88
2023/07/31 08:39:50;;;;;;;9.85;3.50;;;;;;;;;;5054247;28;20605;-89
2023/07/31 08:42:17;;;;;;;9.73;3.70;;;;;;;;;;5054483;28;20219;-88
2023/07/31 08:44:45;;;;;;;12.48;3.67;;;;;;;;;;5054641;28;20227;-88
2023/07/31 08:47:12;;;;;;;7.05;3.53;;;;;;;;;;5054707;28;20652;-88
2023/07/31 08:49:40;;;;;;;7.20;3.15;;;;;;;;;;5054296;28;20286;-88
2023/07/31 08:52:08;;;;;;;10.13;3.13;;;;;;;;;;5054208;28;20253;-88
2023/07/31 08:54:36;;;;;;;8.57;3.25;;;;;;;;;;5054152;28;20569;-89
2023/07/31 08:57:04;;;;;;;8.38;3.33;;;;;;;;;;5054110;28;20779;-89
2023/07/31 08:59:32;;;;;;;6.70;3.28;;;;;;;;;;5054037;28;20231;-88
2023/07/31 09:02:00;;;;;;;5.90;2.85;;;;;;;;;;5054040;28;20670;-89
2023/07/31 09:04:28;;;;;;;8.75;3.30;;;;;;;;;;5053157;28;20279;-88
2023/07/31 09:06:59;;;;;;;11.10;4.25;;;;;;;;;;5053946;28;20235;-88
2023/07/31 09:09:26;;;;;;;10.85;5.78;;;;;;;;;;5053587;28;20275;-88
2023/07/31 09:11:54;;;;;;;6.45;3.88;;;;;;;;;;5053816;28;20273;-89
2023/07/31 09:14:22;;;;;;;8.32;2.80;;;;;;;;;;5053568;28;20200;-88
2023/07/31 09:16:54;;;;;;;5.55;2.70;;;;;;;;;;5053371;28;20310;-89
2023/07/31 09:19:27;;;;;;;7.55;2.92;;;;;;;;;;5053719;28;20191;-88
2023/07/31 09:21:54;;;;;;;7.78;2.45;;;;;;;;;;5053833;28;20596;-88
2023/07/31 09:24:27;;;;;;;6.32;2.40;;;;;;;;;;5053348;28;20233;-89
2023/07/31 09:26:56;;;;;;;4.82;2.20;;;;;;;;;;5053407;28;20273;-89
2023/07/31 09:29:24;;;;;;;4.32;1.90;;;;;;;;;;5053670;28;20253;-89
2023/07/31 09:31:52;;;;;;;7.20;2.38;;;;;;;;;;5053774;28;20598;-88
2023/07/31 09:34:19;;;;;;;5.22;2.63;;;;;;;;;;5053282;28;20226;-89
2023/07/31 09:36:47;;;;;;;3.75;2.22;;;;;;;;;;5053371;28;20311;-88
2023/07/31 09:39:15;;;;;;;4.60;2.20;;;;;;;;;;5053533;28;20611;-90
2023/07/31 09:41:44;;;;;;;3.85;2.70;;;;;;;;;;5053242;28;20278;-88
2023/07/31 09:44:13;;;;;;;7.88;3.35;;;;;;;;;;5052997;28;20275;-91
2023/07/31 09:46:41;;;;;;;6.07;2.30;;;;;;;;;;5053084;28;20318;-89
2023/07/31 09:49:09;;;;;;;4.03;2.05;;;;;;;;;;5054047;28;20247;-90
2023/07/31 09:51:38;;;;;;;3.53;2.17;;;;;;;;;;5054203;28;20199;-90
2023/07/31 09:54:06;;;;;;;4.20;2.25;;;;;;;;;;5053218;28;20310;-89
2023/07/31 09:56:34;;;;;;;3.30;2.50;;;;;;;;;;5053495;28;20691;-89
2023/07/31 09:59:01;;;;;;;3.92;2.30;;;;;;;;;;5052971;28;20754;-90
2023/07/31 10:01:29;;;;;;;4.85;2.58;;;;;;;;;;5053368;28;20242;-90
2023/07/31 10:03:57;;;;;;;5.18;2.63;;;;;;;;;;5053183;28;20257;-90
2023/07/31 10:06:25;;;;;;;5.43;2.50;;;;;;;;;;5053483;28;20318;-91
2023/07/31 10:08:53;;;;;;;5.53;2.55;;;;;;;;;;5053397;28;20282;-89
2023/07/31 10:11:21;;;;;;;4.57;2.38;;;;;;;;;;5053531;28;20265;-90
2023/07/31 10:13:48;;;;;;;4.00;2.22;;;;;;;;;;5053311;28;20279;-90
2023/07/31 10:16:16;;;;;;;4.57;2.38;;;;;;;;;;5053958;28;20314;-89
2023/07/31 10:18:45;;;;;;;5.18;2.40;;;;;;;;;;5057172;28;20195;-89
2023/07/31 10:21:12;;;;;;;3.80;2.53;;;;;;;;;;5057064;28;20274;-89
2023/07/31 10:23:40;;;;;;;4.32;2.47;;;;;;;;;;5057311;28;20227;-90
2023/07/31 10:26:09;;;;;;;3.70;2.40;;;;;;;;;;5056569;28;20228;-90
2023/07/31 10:28:38;;;;;;;5.00;2.83;;;;;;;;;;5056494;28;20746;-90
2023/07/31 10:31:06;;;;;;;8.43;3.13;;;;;;;;;;5056766;28;20270;-90
2023/07/31 10:33:33;;;;;;;5.25;3.15;;;;;;;;;;5057079;28;20288;-91
2023/07/31 10:36:18;;;;;;;6.75;3.40;;;;;;;;;;5056635;28;20229;-88
2023/07/31 10:38:45;;;;;;;6.25;3.70;;;;;;;;;;5056583;28;20283;-91
2023/07/31 10:41:13;;;;;;;7.45;3.67;;;;;;;;;;5056601;28;20282;-89
2023/07/31 10:43:41;;;;;;;6.47;3.80;;;;;;;;;;5056877;28;20290;-88
2023/07/31 10:46:09;;;;;;;7.57;3.38;;;;;;;;;;5056421;28;20661;-89
2023/07/31 10:48:37;;;;;;;7.15;3.88;;;;;;;;;;5056642;28;20184;-90
2023/07/31 10:51:09;;;;;;;7.32;3.97;;;;;;;;;;5056660;28;20299;-89
2023/07/31 10:53:39;;;;;;;4.75;3.60;;;;;;;;;;5056602;28;20203;-90
2023/07/31 10:56:07;;;;;;;7.93;3.95;;;;;;;;;;5056548;28;20195;-90
2023/07/31 10:58:35;;;;;;;6.95;3.60;;;;;;;;;;5056377;28;20600;-90
2023/07/31 11:01:04;;;;;;;7.97;3.88;;;;;;;;;;5055993;28;20268;-91
2023/07/31 11:03:44;;;;;;;6.22;3.80;;;;;;;;;;5056281;28;20192;-87
2023/07/31 11:06:11;;;;;;;6.85;3.67;;;;;;;;;;5056314;28;20226;-89
2023/07/31 11:08:45;;;;;;;10.45;4.15;;;;;;;;;;5056082;28;20203;-89
2023/07/31 11:11:13;;;;;;;10.55;4.50;;;;;;;;;;5055471;28;20235;-88
2023/07/31 11:13:45;;;;;;;9.45;3.90;;;;;;;;;;5055237;28;20288;-86
2023/07/31 11:16:14;;;;;;;7.35;4.10;;;;;;;;;;5054086;28;20247;-85
2023/07/31 11:18:42;;;;;;;7.97;3.88;;;;;;;;;;5054927;28;20396;-87
2023/07/31 11:21:09;;;;;;;5.65;3.33;;;;;;;;;;5054931;28;20195;-86
2023/07/31 11:23:39;;;;;;;7.68;3.25;;;;;;;;;;5055392;28;20768;-85
2023/07/31 11:26:08;;;;;;;8.25;4.32;;;;;;;;;;5055675;28;20188;-86
2023/07/31 11:28:39;;;;;;;5.75;3.55;;;;;;;;;;5054279;28;20319;-86
2023/07/31 11:31:06;;;;;;;5.78;3.45;;;;;;;;;;5055840;28;20290;-86
2023/07/31 11:33:33;;;;;;;7.43;3.50;;;;;;;;;;5055080;28;20198;-86
2023/07/31 11:36:01;;;;;;;5.55;3.45;;;;;;;;;;5055436;28;20279;-87
2023/07/31 11:38:29;;;;;;;5.82;3.28;;;;;;;;;;5055272;28;20270;-86
2023/07/31 11:40:57;;;;;;;6.63;3.60;;;;;;;;;;5056299;28;20215;-87
2023/07/31 11:43:26;;;;;;;5.97;3.30;;;;;;;;;;5055462;28;20241;-87
2023/07/31 11:45:56;;;;;;;4.72;3.22;;;;;;;;;;5055181;28;20207;-86
2023/07/31 11:48:24;;;;;;;6.03;3.13;;;;;;;;;;5055344;28;20227;-87
2023/07/31 11:50:52;;;;;;;4.15;3.30;;;;;;;;;;5055641;28;20211;-86
2023/07/31 11:53:21;;;;;;;6.95;3.45;;;;;;;;;;5055517;28;20580;-86
2023/07/31 11:55:49;;;;;;;6.60;3.50;;;;;;;;;;5055666;28;20622;-86
2023/07/31 11:58:17;;;;;;;11.48;3.88;;;;;;;;;;5054476;28;20254;-86
2023/07/31 12:00:45;;;;;;;8.50;3.55;;;;;;;;;;5055009;28;20199;-86
2023/07/31 12:03:13;;;;;;;9.27;4.38;;;;;;;;;;5055176;28;20238;-89
2023/07/31 12:05:40;;;;;;;6.68;4.13;;;;;;;;;;5054785;28;20711;-86
2023/07/31 12:08:11;;;;;;;10.00;3.85;;;;;;;;;;5054906;28;20291;-86
2023/07/31 12:10:40;;;;;;;8.75;4.25;;;;;;;;;;5054414;28;20202;-84
2023/07/31 12:13:10;;;;;;;7.45;4.43;;;;;;;;;;5054557;28;20655;-86
2023/07/31 12:15:39;;;;;;;6.95;3.83;;;;;;;;;;5054471;28;20235;-85
2023/07/31 12:18:08;;;;;;;5.90;4.25;;;;;;;;;;5054414;28;20231;-86
2023/07/31 12:20:35;;;;;;;9.73;4.65;;;;;;;;;;5054151;28;20199;-86
2023/07/31 12:23:03;;;;;;;9.52;4.50;;;;;;;;;;5053830;28;20196;-86
2023/07/31 12:25:30;;;;;;;6.25;4.35;;;;;;;;;;5053944;28;20219;-87
2023/07/31 12:27:58;;;;;;;9.45;4.78;;;;;;;;;;5053054;28;20263;-86
2023/07/31 12:30:29;;;;;;;8.48;4.32;;;;;;;;;;5053881;28;20196;-87
2023/07/31 12:32:56;;;;;;;10.30;4.32;;;;;;;;;;5052919;28;20234;-86
2023/07/31 12:35:25;;;;;;;7.25;3.60;;;;;;;;;;5053377;28;20245;-85
2023/07/31 12:37:52;;;;;;;7.03;3.95;;;;;;;;;;5054272;28;20326;-86
2023/07/31 12:40:19;;;;;;;9.43;4.00;;;;;;;;;;5052898;28;20195;-87
2023/07/31 12:42:47;;;;;;;8.52;3.78;;;;;;;;;;5053645;28;20207;-87
2023/07/31 12:45:14;;;;;;;8.32;3.70;;;;;;;;;;5053944;28;20192;-88
2023/07/31 12:47:41;;;;;;;5.90;3.30;;;;;;;;;;5052853;28;20294;-87
2023/07/31 12:50:09;;;;;;;7.00;3.83;;;;;;;;;;5053551;28;20282;-88
2023/07/31 12:52:38;;;;;;;6.68;3.70;;;;;;;;;;5054037;28;20192;-86
2023/07/31 12:55:05;;;;;;;8.75;4.20;;;;;;;;;;5053388;28;20697;-88
2023/07/31 12:57:33;;;;;;;5.57;3.70;;;;;;;;;;5053849;28;20241;-86
2023/07/31 13:00:00;;;;;;;7.30;3.83;;;;;;;;;;5053683;28;20262;-88
2023/07/31 13:02:27;;;;;;;6.05;3.17;;;;;;;;;;5053675;28;20230;-88
2023/07/31 13:04:56;;;;;;;5.55;3.10;;;;;;;;;;5053466;28;20274;-88
2023/07/31 13:07:23;;;;;;;4.68;2.60;;;;;;;;;;5053517;28;20203;-86
2023/07/31 13:09:52;;;;;;;5.32;3.20;;;;;;;;;;5053070;28;20619;-87
2023/07/31 13:12:19;;;;;;;5.88;3.03;;;;;;;;;;5053255;28;20219;-86
2023/07/31 13:14:46;;;;;;;5.10;3.17;;;;;;;;;;5053451;28;20223;-87
2023/07/31 13:17:14;;;;;;;4.65;2.80;;;;;;;;;;5053287;28;20224;-86
2023/07/31 13:19:41;;;;;;;5.13;2.90;;;;;;;;;;5053512;28;20286;-88
2023/07/31 13:22:09;;;;;;;4.20;2.88;;;;;;;;;;5053539;28;20284;-88
2023/07/31 13:24:36;;;;;;;4.40;2.88;;;;;;;;;;5053343;28;20279;-87
2023/07/31 13:27:05;;;;;;;5.35;2.90;;;;;;;;;;5052842;28;20263;-87
2023/07/31 13:29:33;;;;;;;3.47;2.60;;;;;;;;;;5053406;28;20299;-87
2023/07/31 13:32:00;;;;;;;4.28;2.63;;;;;;;;;;5053337;28;20192;-88
2023/07/31 13:34:27;;;;;;;3.47;2.53;;;;;;;;;;5053155;28;20290;-88
2023/07/31 13:36:56;;;;;;;4.60;2.28;;;;;;;;;;5053079;28;20218;-88
2023/07/31 13:39:23;;;;;;;5.47;2.60;;;;;;;;;;5052656;28;20660;-86
2023/07/31 13:41:50;;;;;;;3.25;2.13;;;;;;;;;;5053220;28;20620;-88
2023/07/31 13:44:19;;;;;;;3.25;2.15;;;;;;;;;;5053499;28;20271;-87
2023/07/31 13:46:46;;;;;;;4.57;2.42;;;;;;;;;;5052922;28;20223;-88
2023/07/31 13:49:13;;;;;;;4.13;2.38;;;;;;;;;;5052724;28;20660;-86
2023/07/31 13:51:41;;;;;;;5.95;2.40;;;;;;;;;;5054913;28;20657;-86
2023/07/31 13:54:08;;;;;;;2.90;2.38;;;;;;;;;;5056795;28;20223;-87
2023/07/31 13:56:35;;;;;;;4.53;2.45;;;;;;;;;;5057182;28;20290;-88
2023/07/31 13:59:02;;;;;;;4.03;2.85;;;;;;;;;;5057057;28;20663;-87
2023/07/31 14:01:31;;;;;;;4.40;2.50;;;;;;;;;;5056561;28;20270;-86
2023/07/31 14:03:58;;;;;;;4.55;2.60;;;;;;;;;;5056128;28;20297;-87
2023/07/31 14:06:26;;;;;;;3.60;2.60;;;;;;;;;;5056280;28;20684;-85
2023/07/31 14:08:53;;;;;;;4.78;2.47;;;;;;;;;;5055890;28;20386;-85
2023/07/31 14:11:20;;;;;;;4.55;2.78;;;;;;;;;;5056678;28;20188;-87
2023/07/31 14:13:48;;;;;;;5.57;2.72;;;;;;;;;;5056478;28;20279;-86
2023/07/31 14:16:15;;;;;;;5.07;3.22;;;;;;;;;;5056185;28;20215;-86
2023/07/31 14:18:45;;;;;;;5.78;3.45;;;;;;;;;;5056103;28;20265;-85
2023/07/31 14:21:12;;;;;;;6.72;3.50;;;;;;;;;;5056029;28;20653;-85
2023/07/31 14:23:39;;;;;;;5.18;3.75;;;;;;;;;;5056175;28;20298;-85
2023/07/31 14:26:06;;;;;;;6.72;3.70;;;;;;;;;;5055843;28;20277;-84
2023/07/31 14:28:34;;;;;;;5.80;3.70;;;;;;;;;;5055393;28;20327;-84
2023/07/31 14:31:01;;;;;;;5.65;3.70;;;;;;;;;;5056888;28;20219;-84
2023/07/31 14:33:28;;;;;;;6.28;4.22;;;;;;;;;;5055526;28;20234;-84
2023/07/31 14:35:57;;;;;;;7.35;4.00;;;;;;;;;;5056775;28;20642;-85
2023/07/31 14:38:24;;;;;;;6.60;4.00;;;;;;;;;;5055007;28;20598;-84
2023/07/31 14:40:52;;;;;;;4.20;3.45;;;;;;;;;;5055831;28;20291;-84